sensor_id;sensor_type;location;lat;lon;timestamp;P1;durP1;ratioP1;P2;durP2;ratioP2
28028;SDS011;15345;59.364;18.016;2022-08-19T00:00:20;24.92;;;17.48;;
28028;SDS011;15345;59.364;18.016;2022-08-19T00:01:39;20.88;;;16.98;;
28028;SDS011;15345;59.364;18.016;2022-08-19T00:02:58;25.85;;;17.13;;
28028;SDS011;15345;59.364;18.016;2022-08-19T00:04:18;22.45;;;16.35;;
28028;SDS011;15345;59.364;18.016;2022-08-19T00:05:38;23.45;;;16.45;;
28028;SDS011;15345;59.364;18.016;2022-08-19T00:06:57;23.27;;;16.23;;
28028;SDS011;15345;59.364;18.016;2022-08-19T00:08:16;23.65;;;16.75;;
28028;SDS011;15345;59.364;18.016;2022-08-19T00:09:35;23.15;;;16.42;;
28028;SDS011;15345;59.364;18.016;2022-08-19T00:10:54;25.67;;;17.70;;
28028;SDS011;15345;59.364;18.016;2022-08-19T00:12:13;24.95;;;16.75;;
28028;SDS011;15345;59.364;18.016;2022-08-19T00:13:32;26.17;;;17.83;;
28028;SDS011;15345;59.364;18.016;2022-08-19T00:14:51;27.67;;;18.13;;
28028;SDS011;15345;59.364;18.016;2022-08-19T00:16:12;20.80;;;16.95;;
28028;SDS011;15345;59.364;18.016;2022-08-19T00:17:31;22.10;;;15.90;;
28028;SDS011;15345;59.364;18.016;2022-08-19T00:18:50;25.55;;;17.42;;
28028;SDS011;15345;59.364;18.016;2022-08-19T00:20:10;23.92;;;17.58;;
28028;SDS011;15345;59.364;18.016;2022-08-19T00:21:29;23.70;;;17.77;;
28028;SDS011;15345;59.364;18.016;2022-08-19T00:22:49;25.08;;;18.35;;
28028;SDS011;15345;59.364;18.016;2022-08-19T00:24:08;22.45;;;17.15;;
28028;SDS011;15345;59.364;18.016;2022-08-19T00:25:28;24.55;;;18.25;;
28028;SDS011;15345;59.364;18.016;2022-08-19T00:26:47;25.05;;;17.92;;
28028;SDS011;15345;59.364;18.016;2022-08-19T00:28:06;20.70;;;16.67;;
28028;SDS011;15345;59.364;18.016;2022-08-19T00:29:25;24.27;;;17.08;;
28028;SDS011;15345;59.364;18.016;2022-08-19T00:30:44;22.92;;;17.00;;
28028;SDS011;15345;59.364;18.016;2022-08-19T00:32:03;22.55;;;17.95;;
28028;SDS011;15345;59.364;18.016;2022-08-19T00:33:22;25.48;;;19.10;;
28028;SDS011;15345;59.364;18.016;2022-08-19T00:34:41;25.55;;;18.77;;
28028;SDS011;15345;59.364;18.016;2022-08-19T00:36:01;26.23;;;18.25;;
28028;SDS011;15345;59.364;18.016;2022-08-19T00:37:21;26.13;;;17.50;;
28028;SDS011;15345;59.364;18.016;2022-08-19T00:38:41;24.58;;;18.23;;
28028;SDS011;15345;59.364;18.016;2022-08-19T00:40:02;30.27;;;19.15;;
28028;SDS011;15345;59.364;18.016;2022-08-19T00:41:23;22.58;;;18.25;;
28028;SDS011;15345;59.364;18.016;2022-08-19T00:42:42;23.98;;;18.77;;
28028;SDS011;15345;59.364;18.016;2022-08-19T00:44:06;24.85;;;18.02;;
28028;SDS011;15345;59.364;18.016;2022-08-19T00:45:27;23.23;;;17.83;;
28028;SDS011;15345;59.364;18.016;2022-08-19T00:46:51;28.65;;;19.40;;
28028;SDS011;15345;59.364;18.016;2022-08-19T00:48:11;23.92;;;17.20;;
28028;SDS011;15345;59.364;18.016;2022-08-19T00:49:31;24.77;;;17.85;;
28028;SDS011;15345;59.364;18.016;2022-08-19T00:50:51;26.13;;;18.70;;
28028;SDS011;15345;59.364;18.016;2022-08-19T00:52:12;25.75;;;19.00;;
28028;SDS011;15345;59.364;18.016;2022-08-19T00:53:33;27.83;;;18.85;;
28028;SDS011;15345;59.364;18.016;2022-08-19T00:54:52;26.67;;;19.50;;
28028;SDS011;15345;59.364;18.016;2022-08-19T00:56:11;25.67;;;19.05;;
28028;SDS011;15345;59.364;18.016;2022-08-19T00:57:35;24.85;;;18.33;;
28028;SDS011;15345;59.364;18.016;2022-08-19T00:58:56;26.63;;;18.95;;
28028;SDS011;15345;59.364;18.016;2022-08-19T01:00:17;27.88;;;19.10;;
28028;SDS011;15345;59.364;18.016;2022-08-19T01:01:38;26.85;;;19.42;;
28028;SDS011;15345;59.364;18.016;2022-08-19T01:02:57;25.83;;;18.52;;
28028;SDS011;15345;59.364;18.016;2022-08-19T01:04:16;29.90;;;19.17;;
28028;SDS011;15345;59.364;18.016;2022-08-19T01:05:35;22.70;;;18.02;;
28028;SDS011;15345;59.364;18.016;2022-08-19T01:06:55;24.95;;;18.38;;
28028;SDS011;15345;59.364;18.016;2022-08-19T01:08:14;26.05;;;19.17;;
28028;SDS011;15345;59.364;18.016;2022-08-19T01:09:34;32.35;;;20.48;;
28028;SDS011;15345;59.364;18.016;2022-08-19T01:10:54;27.83;;;19.45;;
28028;SDS011;15345;59.364;18.016;2022-08-19T01:12:14;27.00;;;18.58;;
28028;SDS011;15345;59.364;18.016;2022-08-19T01:13:34;22.95;;;17.63;;
28028;SDS011;15345;59.364;18.016;2022-08-19T01:14:54;27.38;;;18.63;;
28028;SDS011;15345;59.364;18.016;2022-08-19T01:16:14;29.15;;;18.45;;
28028;SDS011;15345;59.364;18.016;2022-08-19T01:17:33;29.65;;;19.88;;
28028;SDS011;15345;59.364;18.016;2022-08-19T01:18:53;22.80;;;17.85;;
28028;SDS011;15345;59.364;18.016;2022-08-19T01:20:13;25.23;;;18.80;;
28028;SDS011;15345;59.364;18.016;2022-08-19T01:21:37;24.90;;;19.15;;
28028;SDS011;15345;59.364;18.016;2022-08-19T01:22:59;27.27;;;18.35;;
28028;SDS011;15345;59.364;18.016;2022-08-19T01:24:18;24.92;;;19.02;;
28028;SDS011;15345;59.364;18.016;2022-08-19T01:25:47;31.13;;;18.73;;
28028;SDS011;15345;59.364;18.016;2022-08-19T01:27:08;23.67;;;19.10;;
28028;SDS011;15345;59.364;18.016;2022-08-19T01:28:27;25.50;;;19.27;;
28028;SDS011;15345;59.364;18.016;2022-08-19T01:29:46;23.73;;;18.45;;
28028;SDS011;15345;59.364;18.016;2022-08-19T01:31:07;24.10;;;17.95;;
28028;SDS011;15345;59.364;18.016;2022-08-19T01:32:27;24.42;;;19.52;;
28028;SDS011;15345;59.364;18.016;2022-08-19T01:33:46;24.83;;;19.20;;
28028;SDS011;15345;59.364;18.016;2022-08-19T01:35:05;32.13;;;20.20;;
28028;SDS011;15345;59.364;18.016;2022-08-19T01:36:26;25.60;;;20.33;;
28028;SDS011;15345;59.364;18.016;2022-08-19T01:39:10;24.48;;;19.42;;
28028;SDS011;15345;59.364;18.016;2022-08-19T01:40:30;22.48;;;18.33;;
28028;SDS011;15345;59.364;18.016;2022-08-19T01:41:51;26.08;;;19.13;;
28028;SDS011;15345;59.364;18.016;2022-08-19T01:43:13;25.90;;;19.67;;
28028;SDS011;15345;59.364;18.016;2022-08-19T01:44:33;26.85;;;19.70;;
28028;SDS011;15345;59.364;18.016;2022-08-19T01:45:51;24.00;;;18.92;;
28028;SDS011;15345;59.364;18.016;2022-08-19T01:47:11;25.23;;;18.80;;
28028;SDS011;15345;59.364;18.016;2022-08-19T01:48:37;21.75;;;18.75;;
28028;SDS011;15345;59.364;18.016;2022-08-19T01:49:57;28.05;;;20.02;;
28028;SDS011;15345;59.364;18.016;2022-08-19T01:51:16;23.50;;;19.55;;
28028;SDS011;15345;59.364;18.016;2022-08-19T01:52:36;23.52;;;19.77;;
28028;SDS011;15345;59.364;18.016;2022-08-19T01:53:55;23.52;;;19.55;;
28028;SDS011;15345;59.364;18.016;2022-08-19T01:55:16;26.60;;;20.88;;
28028;SDS011;15345;59.364;18.016;2022-08-19T01:56:35;27.67;;;20.15;;
28028;SDS011;15345;59.364;18.016;2022-08-19T01:57:55;26.23;;;20.75;;
28028;SDS011;15345;59.364;18.016;2022-08-19T01:59:16;29.15;;;20.45;;
28028;SDS011;15345;59.364;18.016;2022-08-19T02:00:36;25.50;;;19.45;;
28028;SDS011;15345;59.364;18.016;2022-08-19T02:01:55;22.83;;;20.23;;
28028;SDS011;15345;59.364;18.016;2022-08-19T02:03:14;26.13;;;20.27;;
28028;SDS011;15345;59.364;18.016;2022-08-19T02:04:35;24.33;;;19.67;;
28028;SDS011;15345;59.364;18.016;2022-08-19T02:05:55;25.13;;;19.10;;
28028;SDS011;15345;59.364;18.016;2022-08-19T02:07:14;26.73;;;19.73;;
28028;SDS011;15345;59.364;18.016;2022-08-19T02:08:35;25.50;;;20.40;;
28028;SDS011;15345;59.364;18.016;2022-08-19T02:09:54;26.90;;;19.40;;
28028;SDS011;15345;59.364;18.016;2022-08-19T02:11:21;26.23;;;19.40;;
28028;SDS011;15345;59.364;18.016;2022-08-19T02:12:41;25.15;;;19.80;;
28028;SDS011;15345;59.364;18.016;2022-08-19T02:14:01;26.00;;;20.00;;
28028;SDS011;15345;59.364;18.016;2022-08-19T02:15:20;28.10;;;21.40;;
28028;SDS011;15345;59.364;18.016;2022-08-19T02:16:40;19.55;;;17.50;;
28028;SDS011;15345;59.364;18.016;2022-08-19T02:17:59;26.38;;;20.48;;
28028;SDS011;15345;59.364;18.016;2022-08-19T02:19:18;25.40;;;20.20;;
28028;SDS011;15345;59.364;18.016;2022-08-19T02:20:37;26.83;;;20.88;;
28028;SDS011;15345;59.364;18.016;2022-08-19T02:21:57;24.67;;;20.08;;
28028;SDS011;15345;59.364;18.016;2022-08-19T02:23:16;26.15;;;20.30;;
28028;SDS011;15345;59.364;18.016;2022-08-19T02:24:35;28.15;;;21.77;;
28028;SDS011;15345;59.364;18.016;2022-08-19T02:25:54;22.10;;;19.73;;
28028;SDS011;15345;59.364;18.016;2022-08-19T02:27:13;24.85;;;20.67;;
28028;SDS011;15345;59.364;18.016;2022-08-19T02:28:31;26.05;;;21.38;;
28028;SDS011;15345;59.364;18.016;2022-08-19T02:29:51;31.10;;;20.33;;
28028;SDS011;15345;59.364;18.016;2022-08-19T02:31:14;26.13;;;19.77;;
28028;SDS011;15345;59.364;18.016;2022-08-19T02:32:33;29.85;;;22.35;;
28028;SDS011;15345;59.364;18.016;2022-08-19T02:33:53;26.52;;;21.95;;
28028;SDS011;15345;59.364;18.016;2022-08-19T02:35:13;27.67;;;21.13;;
28028;SDS011;15345;59.364;18.016;2022-08-19T02:36:32;25.05;;;20.65;;
28028;SDS011;15345;59.364;18.016;2022-08-19T02:37:51;23.73;;;20.30;;
28028;SDS011;15345;59.364;18.016;2022-08-19T02:39:28;26.77;;;20.60;;
28028;SDS011;15345;59.364;18.016;2022-08-19T02:40:49;25.98;;;20.58;;
28028;SDS011;15345;59.364;18.016;2022-08-19T02:42:09;25.63;;;20.58;;
28028;SDS011;15345;59.364;18.016;2022-08-19T02:43:29;27.90;;;20.80;;
28028;SDS011;15345;59.364;18.016;2022-08-19T02:44:48;31.00;;;21.23;;
28028;SDS011;15345;59.364;18.016;2022-08-19T02:47:36;26.95;;;20.83;;
28028;SDS011;15345;59.364;18.016;2022-08-19T02:48:56;25.95;;;20.88;;
28028;SDS011;15345;59.364;18.016;2022-08-19T02:50:15;24.08;;;20.58;;
28028;SDS011;15345;59.364;18.016;2022-08-19T02:51:36;27.67;;;20.55;;
28028;SDS011;15345;59.364;18.016;2022-08-19T02:52:55;26.20;;;19.95;;
28028;SDS011;15345;59.364;18.016;2022-08-19T02:54:14;23.83;;;20.13;;
28028;SDS011;15345;59.364;18.016;2022-08-19T02:55:33;33.15;;;20.25;;
28028;SDS011;15345;59.364;18.016;2022-08-19T02:56:53;23.65;;;19.52;;
28028;SDS011;15345;59.364;18.016;2022-08-19T02:58:13;23.20;;;19.63;;
28028;SDS011;15345;59.364;18.016;2022-08-19T02:59:32;27.20;;;21.55;;
28028;SDS011;15345;59.364;18.016;2022-08-19T03:00:52;29.15;;;22.45;;
28028;SDS011;15345;59.364;18.016;2022-08-19T03:02:11;29.25;;;22.00;;
28028;SDS011;15345;59.364;18.016;2022-08-19T03:03:30;29.02;;;21.77;;
28028;SDS011;15345;59.364;18.016;2022-08-19T03:04:50;23.05;;;19.83;;
28028;SDS011;15345;59.364;18.016;2022-08-19T03:06:10;29.85;;;21.63;;
28028;SDS011;15345;59.364;18.016;2022-08-19T03:07:31;24.77;;;21.15;;
28028;SDS011;15345;59.364;18.016;2022-08-19T03:08:50;26.45;;;22.08;;
28028;SDS011;15345;59.364;18.016;2022-08-19T03:10:09;27.92;;;21.50;;
28028;SDS011;15345;59.364;18.016;2022-08-19T03:11:28;30.85;;;21.75;;
28028;SDS011;15345;59.364;18.016;2022-08-19T03:12:47;33.90;;;22.80;;
28028;SDS011;15345;59.364;18.016;2022-08-19T03:14:07;27.83;;;22.00;;
28028;SDS011;15345;59.364;18.016;2022-08-19T03:15:27;28.30;;;21.55;;
28028;SDS011;15345;59.364;18.016;2022-08-19T03:16:47;27.08;;;21.15;;
28028;SDS011;15345;59.364;18.016;2022-08-19T03:18:06;25.33;;;21.10;;
28028;SDS011;15345;59.364;18.016;2022-08-19T03:19:26;31.13;;;22.10;;
28028;SDS011;15345;59.364;18.016;2022-08-19T03:20:46;28.73;;;21.13;;
28028;SDS011;15345;59.364;18.016;2022-08-19T03:22:06;26.77;;;20.33;;
28028;SDS011;15345;59.364;18.016;2022-08-19T03:23:26;25.63;;;19.13;;
28028;SDS011;15345;59.364;18.016;2022-08-19T03:24:45;26.27;;;19.58;;
28028;SDS011;15345;59.364;18.016;2022-08-19T03:26:04;27.63;;;20.75;;
28028;SDS011;15345;59.364;18.016;2022-08-19T03:27:23;30.42;;;20.80;;
28028;SDS011;15345;59.364;18.016;2022-08-19T03:28:45;30.35;;;21.00;;
28028;SDS011;15345;59.364;18.016;2022-08-19T03:30:08;23.23;;;19.88;;
28028;SDS011;15345;59.364;18.016;2022-08-19T03:31:28;27.63;;;20.15;;
28028;SDS011;15345;59.364;18.016;2022-08-19T03:32:47;26.08;;;19.45;;
28028;SDS011;15345;59.364;18.016;2022-08-19T03:34:06;25.85;;;20.33;;
28028;SDS011;15345;59.364;18.016;2022-08-19T03:35:24;25.08;;;19.33;;
28028;SDS011;15345;59.364;18.016;2022-08-19T03:36:43;25.92;;;19.77;;
28028;SDS011;15345;59.364;18.016;2022-08-19T03:38:03;25.30;;;19.65;;
28028;SDS011;15345;59.364;18.016;2022-08-19T03:39:23;23.30;;;18.75;;
28028;SDS011;15345;59.364;18.016;2022-08-19T03:40:42;25.45;;;19.40;;
28028;SDS011;15345;59.364;18.016;2022-08-19T03:42:01;24.30;;;19.20;;
28028;SDS011;15345;59.364;18.016;2022-08-19T03:43:20;25.33;;;20.75;;
28028;SDS011;15345;59.364;18.016;2022-08-19T03:44:39;22.90;;;19.05;;
28028;SDS011;15345;59.364;18.016;2022-08-19T03:46:02;27.25;;;20.55;;
28028;SDS011;15345;59.364;18.016;2022-08-19T03:47:22;21.45;;;19.13;;
28028;SDS011;15345;59.364;18.016;2022-08-19T03:48:42;24.35;;;20.77;;
28028;SDS011;15345;59.364;18.016;2022-08-19T03:50:01;24.38;;;20.35;;
28028;SDS011;15345;59.364;18.016;2022-08-19T03:51:22;29.23;;;20.60;;
28028;SDS011;15345;59.364;18.016;2022-08-19T03:52:41;25.08;;;19.08;;
28028;SDS011;15345;59.364;18.016;2022-08-19T03:54:02;25.33;;;19.20;;
28028;SDS011;15345;59.364;18.016;2022-08-19T03:55:21;28.20;;;20.17;;
28028;SDS011;15345;59.364;18.016;2022-08-19T03:56:40;27.33;;;20.38;;
28028;SDS011;15345;59.364;18.016;2022-08-19T03:57:59;23.98;;;19.88;;
28028;SDS011;15345;59.364;18.016;2022-08-19T03:59:29;25.23;;;19.52;;
28028;SDS011;15345;59.364;18.016;2022-08-19T04:00:48;24.38;;;18.85;;
28028;SDS011;15345;59.364;18.016;2022-08-19T04:02:09;25.92;;;19.63;;
28028;SDS011;15345;59.364;18.016;2022-08-19T04:03:28;23.30;;;19.30;;
28028;SDS011;15345;59.364;18.016;2022-08-19T04:04:47;26.40;;;20.38;;
28028;SDS011;15345;59.364;18.016;2022-08-19T04:06:13;21.13;;;18.90;;
28028;SDS011;15345;59.364;18.016;2022-08-19T04:07:32;25.13;;;19.17;;
28028;SDS011;15345;59.364;18.016;2022-08-19T04:08:51;22.10;;;18.08;;
28028;SDS011;15345;59.364;18.016;2022-08-19T04:10:12;21.85;;;19.58;;
28028;SDS011;15345;59.364;18.016;2022-08-19T04:11:33;28.65;;;20.73;;
28028;SDS011;15345;59.364;18.016;2022-08-19T04:12:52;27.33;;;20.17;;
28028;SDS011;15345;59.364;18.016;2022-08-19T04:14:12;28.50;;;20.90;;
28028;SDS011;15345;59.364;18.016;2022-08-19T04:15:32;24.95;;;19.38;;
28028;SDS011;15345;59.364;18.016;2022-08-19T04:16:58;25.75;;;19.63;;
28028;SDS011;15345;59.364;18.016;2022-08-19T04:18:17;26.88;;;20.40;;
28028;SDS011;15345;59.364;18.016;2022-08-19T04:19:36;22.83;;;18.88;;
28028;SDS011;15345;59.364;18.016;2022-08-19T04:20:55;24.42;;;21.63;;
28028;SDS011;15345;59.364;18.016;2022-08-19T04:22:15;22.02;;;18.15;;
28028;SDS011;15345;59.364;18.016;2022-08-19T04:23:34;25.42;;;19.92;;
28028;SDS011;15345;59.364;18.016;2022-08-19T04:24:56;27.20;;;20.10;;
28028;SDS011;15345;59.364;18.016;2022-08-19T04:26:16;31.45;;;20.80;;
28028;SDS011;15345;59.364;18.016;2022-08-19T04:27:35;26.10;;;20.65;;
28028;SDS011;15345;59.364;18.016;2022-08-19T04:28:55;32.05;;;20.15;;
28028;SDS011;15345;59.364;18.016;2022-08-19T04:30:14;21.77;;;19.20;;
28028;SDS011;15345;59.364;18.016;2022-08-19T04:31:33;25.42;;;20.17;;
28028;SDS011;15345;59.364;18.016;2022-08-19T04:32:54;22.73;;;20.23;;
28028;SDS011;15345;59.364;18.016;2022-08-19T04:34:14;26.38;;;19.92;;
28028;SDS011;15345;59.364;18.016;2022-08-19T04:35:40;27.73;;;20.02;;
28028;SDS011;15345;59.364;18.016;2022-08-19T04:36:59;26.50;;;20.88;;
28028;SDS011;15345;59.364;18.016;2022-08-19T04:38:19;26.38;;;19.90;;
28028;SDS011;15345;59.364;18.016;2022-08-19T04:39:38;26.38;;;21.02;;
28028;SDS011;15345;59.364;18.016;2022-08-19T04:41:16;26.17;;;21.38;;
28028;SDS011;15345;59.364;18.016;2022-08-19T04:42:54;28.05;;;21.20;;
28028;SDS011;15345;59.364;18.016;2022-08-19T04:44:13;27.08;;;20.80;;
28028;SDS011;15345;59.364;18.016;2022-08-19T04:45:33;27.08;;;21.42;;
28028;SDS011;15345;59.364;18.016;2022-08-19T04:46:52;32.58;;;21.98;;
28028;SDS011;15345;59.364;18.016;2022-08-19T04:48:11;29.88;;;22.45;;
28028;SDS011;15345;59.364;18.016;2022-08-19T04:49:30;25.58;;;21.27;;
28028;SDS011;15345;59.364;18.016;2022-08-19T04:50:49;26.45;;;20.60;;
28028;SDS011;15345;59.364;18.016;2022-08-19T04:52:09;26.63;;;21.67;;
28028;SDS011;15345;59.364;18.016;2022-08-19T04:53:28;28.17;;;21.80;;
28028;SDS011;15345;59.364;18.016;2022-08-19T04:54:47;27.60;;;21.15;;
28028;SDS011;15345;59.364;18.016;2022-08-19T04:56:07;26.95;;;21.00;;
28028;SDS011;15345;59.364;18.016;2022-08-19T04:57:27;26.70;;;22.13;;
28028;SDS011;15345;59.364;18.016;2022-08-19T04:58:46;35.88;;;23.67;;
28028;SDS011;15345;59.364;18.016;2022-08-19T05:00:06;29.60;;;22.02;;
28028;SDS011;15345;59.364;18.016;2022-08-19T05:01:26;25.60;;;20.90;;
28028;SDS011;15345;59.364;18.016;2022-08-19T05:02:47;24.08;;;19.63;;
28028;SDS011;15345;59.364;18.016;2022-08-19T05:04:06;25.52;;;21.20;;
28028;SDS011;15345;59.364;18.016;2022-08-19T05:05:25;24.58;;;21.83;;
28028;SDS011;15345;59.364;18.016;2022-08-19T05:06:45;27.42;;;21.25;;
28028;SDS011;15345;59.364;18.016;2022-08-19T05:08:05;28.63;;;20.65;;
28028;SDS011;15345;59.364;18.016;2022-08-19T05:09:25;24.90;;;21.15;;
28028;SDS011;15345;59.364;18.016;2022-08-19T05:10:44;27.17;;;21.95;;
28028;SDS011;15345;59.364;18.016;2022-08-19T05:12:04;29.00;;;20.95;;
28028;SDS011;15345;59.364;18.016;2022-08-19T05:13:24;27.75;;;21.83;;
28028;SDS011;15345;59.364;18.016;2022-08-19T05:14:43;28.25;;;21.80;;
28028;SDS011;15345;59.364;18.016;2022-08-19T05:16:04;29.80;;;22.55;;
28028;SDS011;15345;59.364;18.016;2022-08-19T05:17:24;32.67;;;21.48;;
28028;SDS011;15345;59.364;18.016;2022-08-19T05:18:43;33.78;;;22.35;;
28028;SDS011;15345;59.364;18.016;2022-08-19T05:20:21;31.65;;;20.95;;
28028;SDS011;15345;59.364;18.016;2022-08-19T05:21:59;25.35;;;20.10;;
28028;SDS011;15345;59.364;18.016;2022-08-19T05:23:37;25.98;;;20.55;;
28028;SDS011;15345;59.364;18.016;2022-08-19T05:24:56;27.77;;;20.35;;
28028;SDS011;15345;59.364;18.016;2022-08-19T05:26:15;23.08;;;19.30;;
28028;SDS011;15345;59.364;18.016;2022-08-19T05:27:34;23.70;;;20.27;;
28028;SDS011;15345;59.364;18.016;2022-08-19T05:28:54;22.92;;;19.27;;
28028;SDS011;15345;59.364;18.016;2022-08-19T05:30:13;22.65;;;20.17;;
28028;SDS011;15345;59.364;18.016;2022-08-19T05:31:32;24.25;;;18.63;;
28028;SDS011;15345;59.364;18.016;2022-08-19T05:32:51;29.00;;;19.63;;
28028;SDS011;15345;59.364;18.016;2022-08-19T05:34:10;24.77;;;18.42;;
28028;SDS011;15345;59.364;18.016;2022-08-19T05:35:30;22.80;;;18.60;;
28028;SDS011;15345;59.364;18.016;2022-08-19T05:36:49;27.25;;;20.27;;
28028;SDS011;15345;59.364;18.016;2022-08-19T05:38:08;22.33;;;18.90;;
28028;SDS011;15345;59.364;18.016;2022-08-19T05:39:28;25.23;;;18.45;;
28028;SDS011;15345;59.364;18.016;2022-08-19T05:40:47;25.05;;;18.20;;
28028;SDS011;15345;59.364;18.016;2022-08-19T05:42:08;21.77;;;17.63;;
28028;SDS011;15345;59.364;18.016;2022-08-19T05:43:28;22.63;;;17.25;;
28028;SDS011;15345;59.364;18.016;2022-08-19T05:44:47;19.08;;;16.92;;
28028;SDS011;15345;59.364;18.016;2022-08-19T05:46:07;22.02;;;16.88;;
28028;SDS011;15345;59.364;18.016;2022-08-19T05:47:27;19.63;;;17.55;;
28028;SDS011;15345;59.364;18.016;2022-08-19T05:48:46;20.33;;;18.17;;
28028;SDS011;15345;59.364;18.016;2022-08-19T05:50:05;27.13;;;18.98;;
28028;SDS011;15345;59.364;18.016;2022-08-19T05:51:24;25.58;;;19.02;;
28028;SDS011;15345;59.364;18.016;2022-08-19T05:52:43;21.58;;;18.60;;
28028;SDS011;15345;59.364;18.016;2022-08-19T05:54:04;19.98;;;17.98;;
28028;SDS011;15345;59.364;18.016;2022-08-19T05:55:23;24.77;;;18.27;;
28028;SDS011;15345;59.364;18.016;2022-08-19T05:56:42;21.80;;;17.88;;
28028;SDS011;15345;59.364;18.016;2022-08-19T05:58:01;18.95;;;16.17;;
28028;SDS011;15345;59.364;18.016;2022-08-19T05:59:20;18.80;;;16.80;;
28028;SDS011;15345;59.364;18.016;2022-08-19T06:00:40;19.27;;;17.17;;
28028;SDS011;15345;59.364;18.016;2022-08-19T06:02:01;19.38;;;16.73;;
28028;SDS011;15345;59.364;18.016;2022-08-19T06:03:20;20.58;;;15.45;;
28028;SDS011;15345;59.364;18.016;2022-08-19T06:04:39;22.45;;;16.42;;
28028;SDS011;15345;59.364;18.016;2022-08-19T06:06:01;19.70;;;15.88;;
28028;SDS011;15345;59.364;18.016;2022-08-19T06:07:21;23.40;;;18.17;;
28028;SDS011;15345;59.364;18.016;2022-08-19T06:08:40;17.92;;;16.00;;
28028;SDS011;15345;59.364;18.016;2022-08-19T06:10:02;20.05;;;16.55;;
28028;SDS011;15345;59.364;18.016;2022-08-19T06:12:40;19.80;;;16.10;;
28028;SDS011;15345;59.364;18.016;2022-08-19T06:14:00;17.45;;;15.38;;
28028;SDS011;15345;59.364;18.016;2022-08-19T06:15:20;17.20;;;15.40;;
28028;SDS011;15345;59.364;18.016;2022-08-19T06:16:41;17.17;;;15.43;;
28028;SDS011;15345;59.364;18.016;2022-08-19T06:18:00;17.27;;;15.15;;
28028;SDS011;15345;59.364;18.016;2022-08-19T06:19:20;17.48;;;14.77;;
28028;SDS011;15345;59.364;18.016;2022-08-19T06:20:41;16.77;;;15.07;;
28028;SDS011;15345;59.364;18.016;2022-08-19T06:22:00;20.33;;;15.07;;
28028;SDS011;15345;59.364;18.016;2022-08-19T06:23:19;19.38;;;14.82;;
28028;SDS011;15345;59.364;18.016;2022-08-19T06:24:39;17.75;;;14.50;;
28028;SDS011;15345;59.364;18.016;2022-08-19T06:25:58;16.42;;;14.65;;
28028;SDS011;15345;59.364;18.016;2022-08-19T06:27:16;19.23;;;15.20;;
28028;SDS011;15345;59.364;18.016;2022-08-19T06:28:35;17.33;;;13.88;;
28028;SDS011;15345;59.364;18.016;2022-08-19T06:29:54;16.70;;;14.45;;
28028;SDS011;15345;59.364;18.016;2022-08-19T06:31:14;17.63;;;13.80;;
28028;SDS011;15345;59.364;18.016;2022-08-19T06:32:33;21.67;;;13.50;;
28028;SDS011;15345;59.364;18.016;2022-08-19T06:33:52;15.55;;;13.05;;
28028;SDS011;15345;59.364;18.016;2022-08-19T06:35:11;15.57;;;13.95;;
28028;SDS011;15345;59.364;18.016;2022-08-19T06:36:34;14.73;;;13.18;;
28028;SDS011;15345;59.364;18.016;2022-08-19T06:37:53;15.93;;;14.25;;
28028;SDS011;15345;59.364;18.016;2022-08-19T06:39:14;14.73;;;13.27;;
28028;SDS011;15345;59.364;18.016;2022-08-19T06:40:33;17.17;;;13.88;;
28028;SDS011;15345;59.364;18.016;2022-08-19T06:41:53;15.57;;;12.48;;
28028;SDS011;15345;59.364;18.016;2022-08-19T06:43:12;14.65;;;13.07;;
28028;SDS011;15345;59.364;18.016;2022-08-19T06:44:35;14.55;;;13.02;;
28028;SDS011;15345;59.364;18.016;2022-08-19T06:45:54;17.95;;;13.50;;
28028;SDS011;15345;59.364;18.016;2022-08-19T06:47:15;16.15;;;13.45;;
28028;SDS011;15345;59.364;18.016;2022-08-19T06:48:35;14.05;;;12.57;;
28028;SDS011;15345;59.364;18.016;2022-08-19T06:49:58;14.07;;;11.98;;
28028;SDS011;15345;59.364;18.016;2022-08-19T06:51:21;21.42;;;12.85;;
28028;SDS011;15345;59.364;18.016;2022-08-19T06:52:41;17.23;;;12.50;;
28028;SDS011;15345;59.364;18.016;2022-08-19T06:54:00;15.10;;;11.95;;
28028;SDS011;15345;59.364;18.016;2022-08-19T06:55:20;19.65;;;13.75;;
28028;SDS011;15345;59.364;18.016;2022-08-19T06:56:39;14.52;;;12.20;;
28028;SDS011;15345;59.364;18.016;2022-08-19T06:58:00;14.48;;;12.35;;
28028;SDS011;15345;59.364;18.016;2022-08-19T06:59:20;16.13;;;12.73;;
28028;SDS011;15345;59.364;18.016;2022-08-19T07:00:39;18.98;;;13.00;;
28028;SDS011;15345;59.364;18.016;2022-08-19T07:01:59;13.52;;;11.85;;
28028;SDS011;15345;59.364;18.016;2022-08-19T07:03:19;15.05;;;12.57;;
28028;SDS011;15345;59.364;18.016;2022-08-19T07:04:38;16.45;;;12.32;;
28028;SDS011;15345;59.364;18.016;2022-08-19T07:05:57;13.15;;;11.70;;
28028;SDS011;15345;59.364;18.016;2022-08-19T07:07:17;14.55;;;11.85;;
28028;SDS011;15345;59.364;18.016;2022-08-19T07:08:37;19.58;;;12.20;;
28028;SDS011;15345;59.364;18.016;2022-08-19T07:09:59;13.95;;;12.48;;
28028;SDS011;15345;59.364;18.016;2022-08-19T07:11:18;21.48;;;12.43;;
28028;SDS011;15345;59.364;18.016;2022-08-19T07:12:37;17.17;;;12.40;;
28028;SDS011;15345;59.364;18.016;2022-08-19T07:13:56;16.33;;;12.48;;
28028;SDS011;15345;59.364;18.016;2022-08-19T07:15:15;15.68;;;11.65;;
28028;SDS011;15345;59.364;18.016;2022-08-19T07:16:34;16.95;;;11.73;;
28028;SDS011;15345;59.364;18.016;2022-08-19T07:17:53;15.95;;;11.63;;
28028;SDS011;15345;59.364;18.016;2022-08-19T07:19:13;14.10;;;11.95;;
28028;SDS011;15345;59.364;18.016;2022-08-19T07:20:32;13.35;;;11.57;;
28028;SDS011;15345;59.364;18.016;2022-08-19T07:21:51;19.67;;;11.65;;
28028;SDS011;15345;59.364;18.016;2022-08-19T07:23:13;14.98;;;11.20;;
28028;SDS011;15345;59.364;18.016;2022-08-19T07:24:32;18.08;;;11.05;;
28028;SDS011;15345;59.364;18.016;2022-08-19T07:25:51;13.68;;;10.95;;
28028;SDS011;15345;59.364;18.016;2022-08-19T07:27:10;20.75;;;11.00;;
28028;SDS011;15345;59.364;18.016;2022-08-19T07:28:29;16.20;;;10.30;;
28028;SDS011;15345;59.364;18.016;2022-08-19T07:29:48;11.63;;;10.50;;
28028;SDS011;15345;59.364;18.016;2022-08-19T07:31:07;14.00;;;10.77;;
28028;SDS011;15345;59.364;18.016;2022-08-19T07:32:26;19.02;;;10.32;;
28028;SDS011;15345;59.364;18.016;2022-08-19T07:33:46;15.73;;;10.18;;
28028;SDS011;15345;59.364;18.016;2022-08-19T07:35:06;13.45;;;10.43;;
28028;SDS011;15345;59.364;18.016;2022-08-19T07:36:26;11.30;;;9.65;;
28028;SDS011;15345;59.364;18.016;2022-08-19T07:37:50;16.60;;;9.63;;
28028;SDS011;15345;59.364;18.016;2022-08-19T07:39:14;12.55;;;10.10;;
28028;SDS011;15345;59.364;18.016;2022-08-19T07:40:34;13.80;;;9.93;;
28028;SDS011;15345;59.364;18.016;2022-08-19T07:41:53;11.27;;;9.65;;
28028;SDS011;15345;59.364;18.016;2022-08-19T07:43:13;14.13;;;10.07;;
28028;SDS011;15345;59.364;18.016;2022-08-19T07:44:33;13.35;;;10.90;;
28028;SDS011;15345;59.364;18.016;2022-08-19T07:45:53;12.43;;;9.82;;